Time;durP1;ratioP1;P1;durP2;ratioP2;P2;SDS_P1;SDS_P2;PMS_P1;PMS_P2;Temp;Humidity;BMP_temperature;BMP_pressure;BME280_temperature;BME280_humidity;BME280_pressure;Samples;Min_cycle;Max_cycle;Signal;HPM_P1;HPM_P2
2021/12/29 00:01:14;;;;;;;56.00;30.70;;;;;;;10.50;78.13;93981.53;4990450;28;20220;-76
2021/12/29 00:03:41;;;;;;;56.33;30.13;;;;;;;10.46;77.81;93983.59;4990391;28;20190;-77
2021/12/29 00:06:08;;;;;;;55.03;30.53;;;;;;;10.39;77.83;93979.25;4990756;28;20189;-77
2021/12/29 00:08:34;;;;;;;50.50;27.60;;;;;;;10.41;77.73;93992.69;4988857;28;20198;-77
2021/12/29 00:11:03;;;;;;;48.57;27.63;;;;;;;10.37;77.17;93994.75;4989857;28;20247;-77
2021/12/29 00:13:30;;;;;;;52.97;27.63;;;;;;;10.26;76.96;93984.78;4990178;28;20185;-78
2021/12/29 00:15:58;;;;;;;47.90;26.20;;;;;;;10.33;76.84;93993.44;4990172;28;20189;-77
2021/12/29 00:18:26;;;;;;;49.00;28.53;;;;;;;10.31;76.73;93982.56;4989958;28;20186;-77
2021/12/29 00:20:53;;;;;;;51.23;29.70;;;;;;;10.28;76.66;93975.22;4989924;28;20212;-77
2021/12/29 00:23:20;;;;;;;50.73;30.37;;;;;;;10.24;76.25;93961.94;4990385;28;20235;-78
2021/12/29 00:25:47;;;;;;;74.03;41.23;;;;;;;10.21;76.06;93957.09;4989758;28;20738;-76
2021/12/29 00:28:16;;;;;;;52.57;29.97;;;;;;;10.19;76.40;93963.31;4990207;28;20208;-76
2021/12/29 00:30:43;;;;;;;59.87;33.33;;;;;;;10.15;76.41;93960.28;4990800;28;20190;-76
2021/12/29 00:33:10;;;;;;;62.83;32.03;;;;;;;10.11;76.77;93965.84;4993207;28;20198;-75
2021/12/29 00:35:38;;;;;;;51.90;30.43;;;;;;;10.12;76.84;93978.47;4993211;28;20204;-77
2021/12/29 00:38:06;;;;;;;60.90;32.47;;;;;;;10.07;76.58;93974.78;4993349;28;20221;-76
2021/12/29 00:40:34;;;;;;;46.17;27.23;;;;;;;10.09;76.56;93972.84;4993157;28;20197;-76
2021/12/29 00:43:01;;;;;;;43.87;27.43;;;;;;;10.06;76.31;93963.75;4993361;28;20228;-74
2021/12/29 00:45:32;;;;;;;51.17;28.70;;;;;;;10.04;75.94;93974.09;4992992;28;20192;-75
2021/12/29 00:47:59;;;;;;;40.40;24.30;;;;;;;9.94;75.79;93962.41;4993797;28;20732;-77
2021/12/29 00:50:27;;;;;;;39.50;24.90;;;;;;;9.71;75.69;93926.34;4992804;28;20217;-76
2021/12/29 00:52:54;;;;;;;36.97;23.87;;;;;;;9.97;75.54;93978.25;4993539;28;20201;-77
2021/12/29 00:55:21;;;;;;;38.60;22.83;;;;;;;9.96;75.38;93979.16;4993002;28;20192;-75
2021/12/29 00:57:47;;;;;;;41.30;22.97;;;;;;;9.95;75.21;93974.22;4992747;28;20197;-75
2021/12/29 01:00:17;;;;;;;37.87;22.80;;;;;;;9.94;75.03;93970.88;4993069;28;20189;-76
2021/12/29 01:02:46;;;;;;;31.33;21.40;;;;;;;9.93;75.13;93961.63;4992731;28;20225;-77
2021/12/29 01:05:14;;;;;;;41.80;20.97;;;;;;;9.93;75.33;93960.78;4993228;28;20633;-76
2021/12/29 01:07:42;;;;;;;34.33;21.83;;;;;;;9.92;75.23;93964.31;4992732;28;20181;-75
2021/12/29 01:10:09;;;;;;;34.77;21.13;;;;;;;9.81;75.26;93942.41;4992972;28;20208;-75
2021/12/29 01:12:36;;;;;;;35.77;22.67;;;;;;;9.82;75.26;93945.75;4992765;28;20200;-76
2021/12/29 01:15:03;;;;;;;36.77;24.23;;;;;;;9.89;75.34;93956.97;4992906;28;20273;-76
2021/12/29 01:17:31;;;;;;;37.03;22.33;;;;;;;9.92;75.25;93952.34;4992396;28;20193;-75
2021/12/29 01:19:59;;;;;;;39.97;22.93;;;;;;;9.89;75.64;93950.09;4993065;28;20251;-77
2021/12/29 01:22:26;;;;;;;32.20;21.73;;;;;;;9.91;75.35;93949.94;4991906;28;20233;-76
2021/12/29 01:24:53;;;;;;;33.83;22.73;;;;;;;9.92;75.62;93947.22;4990862;28;20193;-76
2021/12/29 01:27:20;;;;;;;36.70;24.90;;;;;;;9.93;75.48;93948.84;4992178;28;20196;-75
2021/12/29 01:29:47;;;;;;;48.27;26.50;;;;;;;9.75;75.54;93923.34;4992509;28;20193;-76
2021/12/29 01:32:14;;;;;;;43.77;26.87;;;;;;;9.94;75.64;93939.44;4992000;28;20252;-75
2021/12/29 01:34:41;;;;;;;39.63;24.30;;;;;;;9.88;75.65;93930.59;4992463;28;20200;-76
2021/12/29 01:37:10;;;;;;;36.63;24.87;;;;;;;9.91;75.71;93927.75;4992512;28;20200;-75
2021/12/29 01:39:37;;;;;;;33.77;22.77;;;;;;;9.91;75.50;93921.84;4992241;28;20197;-76
2021/12/29 01:42:04;;;;;;;34.67;22.43;;;;;;;9.96;75.52;93935.75;4991266;28;20231;-74
2021/12/29 01:44:31;;;;;;;31.43;21.87;;;;;;;9.96;75.53;93937.50;4992102;28;20192;-77
2021/12/29 01:46:59;;;;;;;32.73;22.67;;;;;;;9.95;75.54;93931.59;4992083;28;20197;-74
2021/12/29 01:49:26;;;;;;;34.70;21.60;;;;;;;9.95;75.43;93920.59;4990171;28;20193;-75
2021/12/29 01:52:03;;;;;;;35.77;21.53;;;;;;;9.93;75.18;93914.81;4991957;28;20225;-75
2021/12/29 01:54:35;;;;;;;30.57;21.43;;;;;;;9.93;75.40;93910.53;4992001;28;20185;-76
2021/12/29 01:57:04;;;;;;;28.67;18.90;;;;;;;9.93;75.40;93909.72;4992060;28;20243;-74
2021/12/29 01:59:31;;;;;;;28.27;18.37;;;;;;;9.94;75.31;93908.78;4991604;28;20247;-75
2021/12/29 02:01:58;;;;;;;28.53;19.17;;;;;;;9.91;75.24;93896.31;4991975;28;20650;-75
2021/12/29 02:04:25;;;;;;;28.77;18.37;;;;;;;9.94;75.22;93901.13;4991718;28;20197;-75
2021/12/29 02:06:52;;;;;;;28.00;18.17;;;;;;;9.96;75.25;93896.66;4991828;28;20201;-76
2021/12/29 02:09:19;;;;;;;30.57;19.70;;;;;;;9.95;75.16;93885.63;4991590;28;20200;-74
2021/12/29 02:11:47;;;;;;;27.73;17.97;;;;;;;9.96;75.16;93892.34;4991923;28;20212;-75
2021/12/29 02:14:15;;;;;;;28.30;17.60;;;;;;;9.98;75.17;93889.66;4991710;28;20826;-76
2021/12/29 02:16:42;;;;;;;27.37;17.77;;;;;;;9.96;75.27;93866.78;4991929;28;20197;-75
2021/12/29 02:19:11;;;;;;;28.30;18.30;;;;;;;9.88;75.27;93859.09;4991676;28;20185;-76
2021/12/29 02:21:50;;;;;;;25.73;17.07;;;;;;;9.95;75.32;93855.00;4991473;28;20696;-74
2021/12/29 02:24:19;;;;;;;30.77;18.17;;;;;;;9.96;75.21;93854.03;4991387;28;20189;-75
2021/12/29 02:26:48;;;;;;;26.20;16.93;;;;;;;9.95;75.21;93856.75;4991319;28;20572;-76
2021/12/29 02:29:17;;;;;;;25.43;16.53;;;;;;;9.95;75.21;93857.53;4991205;28;20185;-75
2021/12/29 02:31:45;;;;;;;27.40;17.23;;;;;;;9.96;75.31;93854.03;4991544;28;20200;-75
2021/12/29 02:34:14;;;;;;;24.53;16.37;;;;;;;9.96;75.35;93859.13;4991025;28;20192;-74
2021/12/29 02:36:44;;;;;;;25.90;17.13;;;;;;;9.93;75.14;93851.81;4991326;28;20625;-76
2021/12/29 02:39:18;;;;;;;28.17;17.93;;;;;;;9.78;75.15;93830.34;4991004;28;20201;-74
2021/12/29 02:41:49;;;;;;;27.50;17.43;;;;;;;9.97;75.30;93858.19;4990869;28;20201;-77
2021/12/29 02:44:20;;;;;;;26.43;17.33;;;;;;;9.96;75.32;93861.69;4991076;28;20267;-76
2021/12/29 02:46:48;;;;;;;27.57;17.67;;;;;;;9.91;75.55;93856.25;4991204;28;20189;-78
2021/12/29 02:49:15;;;;;;;23.93;16.50;;;;;;;9.96;75.19;93869.34;4991119;28;20197;-77
2021/12/29 02:51:43;;;;;;;25.73;17.03;;;;;;;9.95;75.12;93857.53;4990803;28;20236;-76
2021/12/29 02:54:12;;;;;;;27.03;16.67;;;;;;;9.95;75.34;93859.28;4990169;28;20216;-76
2021/12/29 02:56:39;;;;;;;26.67;17.33;;;;;;;9.94;75.09;93850.84;4990964;28;20189;-77
2021/12/29 02:59:06;;;;;;;25.40;16.30;;;;;;;9.95;75.27;93854.19;4991311;28;20196;-75
2021/12/29 03:01:33;;;;;;;28.77;18.67;;;;;;;9.95;75.26;93855.00;4990506;28;20572;-76
2021/12/29 03:04:04;;;;;;;29.17;17.90;;;;;;;9.95;75.18;93846.53;4990865;28;20221;-76
2021/12/29 03:06:31;;;;;;;25.47;17.23;;;;;;;9.96;75.47;93851.47;4991034;28;20210;-76
2021/12/29 03:08:59;;;;;;;26.57;18.03;;;;;;;9.97;75.43;93849.72;4990728;28;20189;-76
2021/12/29 03:11:26;;;;;;;27.00;18.30;;;;;;;9.97;75.38;93847.97;4990713;28;20193;-76
2021/12/29 03:13:53;;;;;;;28.67;18.60;;;;;;;9.96;75.49;93846.38;4990609;28;20552;-73
2021/12/29 03:16:20;;;;;;;27.30;19.23;;;;;;;9.88;75.45;93836.13;4990928;28;20185;-75
2021/12/29 03:18:47;;;;;;;25.73;17.67;;;;;;;9.92;75.42;93844.28;4990933;28;20204;-75
2021/12/29 03:21:14;;;;;;;29.13;18.27;;;;;;;9.82;75.61;93821.44;4990641;28;20900;-77
2021/12/29 03:23:41;;;;;;;28.37;20.00;;;;;;;9.98;75.74;93836.00;4990496;28;20629;-77
2021/12/29 03:26:10;;;;;;;24.33;18.00;;;;;;;9.98;75.59;93833.47;4990517;28;20197;-76
2021/12/29 03:28:39;;;;;;;26.50;18.33;;;;;;;9.99;75.37;93835.84;4990693;28;20205;-75
2021/12/29 03:31:10;;;;;;;31.40;18.03;;;;;;;9.98;75.63;93831.69;4990647;28;20193;-76
2021/12/29 03:33:37;;;;;;;24.73;17.47;;;;;;;10.00;75.62;93828.97;4990560;28;20794;-76
2021/12/29 03:36:05;;;;;;;25.77;19.13;;;;;;;9.86;75.70;93807.41;4990886;28;20204;-76
2021/12/29 03:38:35;;;;;;;27.23;19.30;;;;;;;10.00;75.68;93824.66;4990367;28;20196;-76
2021/12/29 03:41:03;;;;;;;26.87;18.80;;;;;;;9.98;75.83;93828.34;4990120;28;20197;-77
2021/12/29 03:43:33;;;;;;;27.53;18.73;;;;;;;10.01;75.69;93833.91;4990726;28;20235;-76
2021/12/29 03:46:00;;;;;;;27.57;18.67;;;;;;;10.03;75.89;93833.78;4990669;28;20244;-76
2021/12/29 03:48:28;;;;;;;26.20;19.10;;;;;;;10.02;75.71;93821.97;4990611;28;20196;-76
2021/12/29 03:50:55;;;;;;;30.33;19.57;;;;;;;10.03;75.82;93815.91;4990523;28;20263;-77
2021/12/29 03:53:22;;;;;;;27.90;19.37;;;;;;;10.03;75.82;93813.34;4990598;28;20192;-75
2021/12/29 03:55:50;;;;;;;27.33;18.47;;;;;;;9.90;75.85;93795.91;4990371;28;20189;-75
2021/12/29 03:58:17;;;;;;;30.93;19.87;;;;;;;9.62;75.83;93746.03;4990293;28;20272;-75
2021/12/29 04:00:47;;;;;;;25.93;17.97;;;;;;;10.04;75.78;93815.75;4990241;28;20193;-76
2021/12/29 04:03:13;;;;;;;28.23;19.23;;;;;;;10.03;75.99;93806.47;4990287;28;20225;-76
2021/12/29 04:05:41;;;;;;;25.23;18.47;;;;;;;10.08;76.01;93807.78;4993060;28;20184;-76
2021/12/29 04:08:08;;;;;;;29.60;19.27;;;;;;;10.05;75.72;93801.22;4993919;28;20197;-75
2021/12/29 04:10:34;;;;;;;29.60;19.63;;;;;;;10.09;75.97;93814.47;4994187;28;20193;-76
2021/12/29 04:13:01;;;;;;;27.90;18.83;;;;;;;10.09;76.00;93811.91;4993707;28;20208;-77
2021/12/29 04:15:29;;;;;;;28.53;19.67;;;;;;;10.09;75.98;93817.03;4994004;28;20223;-77
2021/12/29 04:18:02;;;;;;;28.87;19.73;;;;;;;10.09;76.00;93807.59;4993639;28;20740;-77
2021/12/29 04:23:16;;;;;;;32.23;20.00;;;;;;;10.08;75.98;93805.22;4993466;28;20259;-76
2021/12/29 04:25:46;;;;;;;29.07;20.17;;;;;;;10.09;76.06;93806.81;4993913;28;20185;-77
2021/12/29 04:28:16;;;;;;;29.47;19.43;;;;;;;10.09;76.01;93810.16;4993456;28;20204;-77
2021/12/29 04:30:43;;;;;;;31.37;20.27;;;;;;;9.96;75.99;93786.81;4993616;28;20201;-77
2021/12/29 04:33:12;;;;;;;29.10;20.60;;;;;;;10.10;76.05;93805.84;4993251;28;20197;-77
2021/12/29 04:35:38;;;;;;;32.03;21.43;;;;;;;10.04;76.12;93794.50;4993890;28;20185;-77
2021/12/29 04:38:05;;;;;;;30.50;21.07;;;;;;;10.11;76.03;93810.81;4993784;28;20185;-77
2021/12/29 04:40:32;;;;;;;29.40;21.30;;;;;;;10.11;75.96;93815.94;4993747;28;20197;-77
2021/12/29 04:42:59;;;;;;;29.80;20.80;;;;;;;9.90;75.80;93784.91;4993336;28;20220;-76
2021/12/29 04:45:26;;;;;;;31.13;19.47;;;;;;;9.96;75.90;93795.28;4993319;28;20649;-76
2021/12/29 04:47:53;;;;;;;34.67;21.03;;;;;;;10.10;76.00;93814.31;4993353;28;20189;-78
2021/12/29 04:50:28;;;;;;;29.83;19.70;;;;;;;10.12;75.81;93821.84;4992779;28;20683;-75
2021/12/29 04:52:57;;;;;;;28.20;18.47;;;;;;;10.12;75.99;93821.84;4993622;28;20321;-75
2021/12/29 04:55:25;;;;;;;29.37;19.30;;;;;;;10.05;75.90;93821.66;4993149;28;20185;-77
2021/12/29 04:57:52;;;;;;;27.03;19.03;;;;;;;10.11;75.80;93820.25;4993111;28;20208;-77
2021/12/29 05:00:23;;;;;;;27.43;18.83;;;;;;;10.15;75.78;93826.63;4992993;28;20196;-76
2021/12/29 05:02:51;;;;;;;32.73;18.53;;;;;;;10.16;75.71;93818.81;4993445;28;20271;-77
2021/12/29 05:05:27;;;;;;;28.07;17.77;;;;;;;10.18;75.84;93829.66;4992858;28;20192;-76
2021/12/29 05:10:40;;;;;;;29.20;18.87;;;;;;;10.17;75.99;93819.59;4992801;28;20180;-77
2021/12/29 05:13:07;;;;;;;30.07;19.87;;;;;;;10.23;75.70;93827.47;4992516;28;20194;-77
2021/12/29 05:15:34;;;;;;;30.03;18.80;;;;;;;10.26;75.84;93828.91;4992541;28;20189;-77
2021/12/29 05:18:01;;;;;;;27.13;18.13;;;;;;;10.27;75.84;93833.06;4992358;28;20204;-77
2021/12/29 05:20:30;;;;;;;32.40;19.93;;;;;;;10.24;75.61;93823.16;4992553;28;20201;-76
2021/12/29 05:22:59;;;;;;;29.00;19.50;;;;;;;10.15;75.58;93811.31;4992782;28;20596;-77
2021/12/29 05:25:27;;;;;;;31.07;19.23;;;;;;;10.22;75.54;93813.06;4992094;28;20208;-77
2021/12/29 05:27:55;;;;;;;30.23;20.03;;;;;;;10.37;75.73;93836.28;4992689;28;20197;-76
2021/12/29 05:30:22;;;;;;;28.53;19.90;;;;;;;10.39;75.65;93838.69;4992506;28;20252;-78
2021/12/29 05:32:49;;;;;;;30.77;20.63;;;;;;;10.41;75.73;93836.78;4992549;28;20661;-77
2021/12/29 05:35:17;;;;;;;35.33;20.03;;;;;;;10.42;75.74;93830.69;4992722;28;20204;-75
2021/12/29 05:37:45;;;;;;;32.30;19.87;;;;;;;10.44;75.73;93831.34;4992419;28;20200;-75
2021/12/29 05:40:15;;;;;;;33.03;20.23;;;;;;;10.46;75.69;93829.44;4991367;28;20193;-76
2021/12/29 05:42:42;;;;;;;30.93;20.47;;;;;;;10.45;75.53;93827.84;4990711;28;20197;-78
2021/12/29 05:45:12;;;;;;;31.73;20.07;;;;;;;10.49;75.71;93832.47;4992011;28;20704;-75
2021/12/29 05:47:39;;;;;;;31.13;19.50;;;;;;;10.33;75.71;93806.91;4992200;28;20193;-75
2021/12/29 05:50:10;;;;;;;32.53;20.53;;;;;;;10.52;75.79;93827.03;4991640;28;20275;-75
2021/12/29 05:52:37;;;;;;;32.77;20.30;;;;;;;10.54;75.82;93826.88;4991828;28;20197;-76
2021/12/29 05:55:04;;;;;;;27.73;19.17;;;;;;;10.38;75.80;93807.22;4991724;28;20185;-75
2021/12/29 05:57:32;;;;;;;33.30;20.03;;;;;;;10.57;75.85;93839.34;4991891;28;20200;-75
2021/12/29 05:59:59;;;;;;;32.97;20.27;;;;;;;10.59;75.70;93837.44;4992187;28;20196;-78
2021/12/29 06:02:26;;;;;;;30.77;20.23;;;;;;;10.60;75.67;93836.47;4992019;28;20200;-76
2021/12/29 06:04:53;;;;;;;32.80;21.20;;;;;;;10.60;75.82;93822.88;4991661;28;20223;-75
2021/12/29 06:07:20;;;;;;;29.10;19.97;;;;;;;10.66;75.51;93840.13;4991787;28;20193;-76
2021/12/29 06:09:47;;;;;;;36.57;21.80;;;;;;;10.66;75.61;93830.69;4991859;28;20193;-76
2021/12/29 06:12:13;;;;;;;34.03;20.63;;;;;;;10.70;75.57;93836.31;4991255;28;20189;-75
2021/12/29 06:14:44;;;;;;;27.93;19.90;;;;;;;10.39;75.80;93783.25;4991752;28;20192;-77
2021/12/29 06:17:11;;;;;;;30.90;20.30;;;;;;;10.72;75.87;93832.66;4991447;28;20288;-76
2021/12/29 06:19:38;;;;;;;29.63;20.23;;;;;;;10.73;75.80;93839.34;4991410;28;20189;-75
2021/12/29 06:22:08;;;;;;;34.33;21.23;;;;;;;10.76;76.05;93848.47;4991388;28;20205;-77
2021/12/29 06:24:35;;;;;;;30.67;20.67;;;;;;;10.77;75.90;93844.94;4991633;28;20259;-76
2021/12/29 06:27:02;;;;;;;34.03;21.23;;;;;;;10.77;75.75;93845.75;4991423;28;20639;-76
2021/12/29 06:29:29;;;;;;;33.83;20.53;;;;;;;10.82;76.03;93850.38;4990775;28;20197;-75
2021/12/29 06:31:57;;;;;;;32.87;21.87;;;;;;;10.85;75.72;93851.81;4991181;28;20215;-75
2021/12/29 06:34:24;;;;;;;33.30;21.27;;;;;;;10.88;75.82;93861.72;4991181;28;20277;-75
2021/12/29 06:36:51;;;;;;;34.87;22.83;;;;;;;10.88;76.07;93859.16;4990988;28;20186;-77
2021/12/29 06:39:18;;;;;;;34.07;21.90;;;;;;;10.92;76.08;93863.78;4991138;28;20193;-76
2021/12/29 06:41:45;;;;;;;33.57;21.37;;;;;;;10.96;75.91;93866.84;4990756;28;20687;-77
2021/12/29 06:44:12;;;;;;;31.60;21.53;;;;;;;10.97;76.00;93848.78;4991131;28;20256;-77
2021/12/29 06:46:38;;;;;;;34.57;21.93;;;;;;;10.75;76.05;93814.44;4990711;28;20193;-77
2021/12/29 06:49:07;;;;;;;33.23;22.30;;;;;;;11.01;75.86;93862.84;4990738;28;20197;-77
2021/12/29 06:51:33;;;;;;;32.57;21.97;;;;;;;10.85;75.68;93833.94;4991069;28;20243;-75
2021/12/29 06:54:00;;;;;;;31.50;21.20;;;;;;;11.07;75.58;93863.97;4990880;28;20211;-76
2021/12/29 06:56:27;;;;;;;31.70;20.63;;;;;;;11.08;75.65;93867.31;4991081;28;20193;-74
2021/12/29 06:58:54;;;;;;;35.93;22.33;;;;;;;11.10;75.55;93868.78;4990663;28;20580;-75
2021/12/29 07:01:21;;;;;;;36.73;21.93;;;;;;;11.12;75.41;93866.84;4990809;28;20204;-76
2021/12/29 07:03:48;;;;;;;32.17;21.93;;;;;;;11.13;75.23;93870.97;4990554;28;20735;-77
2021/12/29 07:06:16;;;;;;;34.20;21.70;;;;;;;11.14;75.27;93872.59;4990902;28;20189;-77
2021/12/29 07:08:43;;;;;;;31.93;20.67;;;;;;;11.16;75.11;93875.78;4990405;28;20660;-77
2021/12/29 07:11:09;;;;;;;33.57;21.70;;;;;;;11.08;75.10;93868.13;4991038;28;20207;-75
2021/12/29 07:13:36;;;;;;;32.77;21.40;;;;;;;11.17;74.82;93877.38;4990441;28;20204;-76
2021/12/29 07:16:03;;;;;;;35.50;23.93;;;;;;;11.19;74.89;93877.25;5002557;28;20189;-77
2021/12/29 07:18:30;;;;;;;34.90;22.53;;;;;;;11.19;74.91;93882.34;5010487;28;20204;-76
2021/12/29 07:20:57;;;;;;;33.57;22.83;;;;;;;11.20;74.95;93881.38;5009881;28;20199;-77
2021/12/29 07:23:25;;;;;;;35.90;22.63;;;;;;;11.21;75.08;93882.97;5010270;28;20224;-77
2021/12/29 07:25:52;;;;;;;35.50;23.60;;;;;;;11.17;74.98;93874.03;5006552;28;20193;-77
2021/12/29 07:28:18;;;;;;;39.30;24.20;;;;;;;11.21;75.08;93883.78;5010015;28;20188;-75
2021/12/29 07:30:45;;;;;;;39.77;24.70;;;;;;;11.25;75.30;93885.06;5009899;28;20192;-78
2021/12/29 07:33:12;;;;;;;38.00;24.07;;;;;;;11.25;75.37;93884.25;5010036;28;20254;-76
2021/12/29 07:35:39;;;;;;;39.87;26.07;;;;;;;11.14;75.44;93866.66;5009595;28;20200;-75
2021/12/29 07:38:06;;;;;;;38.30;24.40;;;;;;;11.27;75.81;93888.28;5010405;28;20191;-74
2021/12/29 07:40:35;;;;;;;38.07;25.27;;;;;;;11.28;75.85;93887.31;5012903;28;20188;-75
2021/12/29 07:43:02;;;;;;;41.20;25.17;;;;;;;11.29;75.88;93888.09;5013857;28;20232;-76
2021/12/29 07:45:29;;;;;;;38.73;25.47;;;;;;;11.33;76.04;93888.56;5013736;28;20231;-76
2021/12/29 07:47:56;;;;;;;39.03;25.00;;;;;;;11.32;76.07;93890.34;5013907;28;20191;-76
2021/12/29 07:50:22;;;;;;;41.23;25.30;;;;;;;11.33;76.14;93888.56;5011732;28;20188;-75
2021/12/29 07:52:49;;;;;;;39.80;24.27;;;;;;;11.28;76.35;93877.06;5007999;28;20211;-77
2021/12/29 07:55:17;;;;;;;39.03;25.63;;;;;;;11.34;76.47;93888.41;5011143;28;20679;-77
2021/12/29 07:57:45;;;;;;;42.93;26.20;;;;;;;11.21;76.60;93857.38;5013760;28;20192;-79
2021/12/29 08:00:14;;;;;;;42.77;26.63;;;;;;;11.36;76.52;93888.25;5013772;28;20196;-75
2021/12/29 08:02:44;;;;;;;37.90;24.80;;;;;;;11.37;76.79;93885.53;5013469;28;20196;-77
2021/12/29 08:05:13;;;;;;;43.00;28.47;;;;;;;11.23;76.41;93858.03;5013805;28;20603;-78
2021/12/29 08:07:40;;;;;;;35.67;25.47;;;;;;;11.40;76.65;93890.34;5013297;28;20184;-76
2021/12/29 08:10:08;;;;;;;36.63;26.03;;;;;;;11.37;76.88;93874.50;5013955;28;20549;-77
2021/12/29 08:12:35;;;;;;;39.73;25.50;;;;;;;11.41;76.79;93886.81;5013719;28;20594;-75
2021/12/29 08:15:04;;;;;;;37.13;24.27;;;;;;;11.42;76.57;93883.28;5002979;28;20628;-78
2021/12/29 08:17:32;;;;;;;13.00;8.93;;;;;;;11.81;100.00;93885.09;5000271;28;20200;-73
2021/12/29 08:19:59;;;;;;;17.03;11.00;;;;;;;12.51;100.00;93884.34;5005309;28;20243;-76
2021/12/29 08:22:26;;;;;;;16.00;10.13;;;;;;;13.23;100.00;93877.13;5013306;28;20196;-77
2021/12/29 08:24:53;;;;;;;20.73;10.30;;;;;;;13.91;100.00;93880.47;5013531;28;20235;-77
2021/12/29 08:27:20;;;;;;;13.93;10.33;;;;;;;14.53;98.11;93884.41;4991844;28;20212;-80
2021/12/29 08:29:47;;;;;;;18.00;11.40;;;;;;;15.08;93.42;93885.53;4991520;28;20577;-82
2021/12/29 08:32:15;;;;;;;20.10;12.10;;;;;;;15.55;89.57;93882.34;4991708;28;20201;-79
2021/12/29 08:34:42;;;;;;;15.33;11.17;;;;;;;15.95;85.82;93886.97;4992471;28;20219;-79
2021/12/29 08:37:09;;;;;;;14.53;11.03;;;;;;;16.29;82.91;93883.56;5011326;28;20270;-78
2021/12/29 08:39:36;;;;;;;17.10;11.60;;;;;;;16.54;80.53;93878.69;5016656;28;20195;-79
2021/12/29 08:42:03;;;;;;;21.63;16.33;;;;;;;16.72;79.25;93870.38;5011123;28;20191;-77
2021/12/29 08:44:30;;;;;;;25.57;20.13;;;;;;;16.79;77.57;93890.06;5010505;28;20246;-77
2021/12/29 08:46:57;;;;;;;28.43;20.40;;;;;;;16.64;75.42;93896.38;5010737;28;20184;-75
2021/12/29 08:49:25;;;;;;;29.60;21.47;;;;;;;16.40;73.60;93888.16;5010191;28;20594;-77
2021/12/29 08:51:52;;;;;;;31.40;23.13;;;;;;;16.15;72.34;93884.47;5009040;28;20809;-78
2021/12/29 08:54:19;;;;;;;29.33;22.27;;;;;;;15.90;71.55;93889.31;5006040;28;20715;-76
2021/12/29 08:56:46;;;;;;;29.00;22.33;;;;;;;15.62;71.13;93876.41;4992604;28;20185;-77
2021/12/29 08:59:13;;;;;;;33.50;22.30;;;;;;;15.42;70.34;93882.25;4992838;28;20208;-76
2021/12/29 09:01:41;;;;;;;31.40;22.83;;;;;;;15.20;70.40;93886.63;4990350;28;20189;-79
2021/12/29 09:04:08;;;;;;;31.13;23.57;;;;;;;15.00;70.34;93883.88;4993760;28;20308;-76
2021/12/29 09:06:37;;;;;;;32.97;22.77;;;;;;;14.83;70.25;93882.53;5009957;28;20640;-77
2021/12/29 09:09:04;;;;;;;32.00;22.43;;;;;;;14.48;69.89;93848.09;4993423;28;20216;-78
2021/12/29 09:11:31;;;;;;;30.20;22.33;;;;;;;14.45;70.17;93862.09;4990748;28;20696;-78
2021/12/29 09:13:59;;;;;;;32.07;22.30;;;;;;;14.41;70.33;93867.81;4990321;28;20196;-78
2021/12/29 09:16:26;;;;;;;33.20;23.90;;;;;;;14.30;70.29;93864.72;4990325;28;20228;-78
2021/12/29 09:18:53;;;;;;;34.33;25.53;;;;;;;14.24;70.55;93864.63;4990411;28;20197;-75
2021/12/29 09:21:21;;;;;;;36.03;24.83;;;;;;;14.08;70.53;93839.16;4989776;28;20189;-76
2021/12/29 09:23:49;;;;;;;33.13;23.93;;;;;;;14.10;70.58;93855.19;4990069;28;20661;-75
2021/12/29 09:26:17;;;;;;;31.87;24.43;;;;;;;14.04;70.47;93851.56;4990082;28;20193;-75
2021/12/29 09:28:46;;;;;;;36.23;23.97;;;;;;;13.98;70.76;93844.56;4990262;28;20292;-76
2021/12/29 09:31:14;;;;;;;36.20;25.73;;;;;;;13.92;70.63;93840.94;4989901;28;20197;-75
2021/12/29 09:33:42;;;;;;;35.97;23.70;;;;;;;13.88;70.76;93838.91;4996638;28;20269;-77
2021/12/29 09:36:09;;;;;;;38.50;24.00;;;;;;;13.55;70.83;93791.25;5005107;28;20193;-76
2021/12/29 09:38:40;;;;;;;32.80;23.37;;;;;;;13.80;70.96;93835.44;4997183;28;20181;-77
2021/12/29 09:41:09;;;;;;;36.00;23.33;;;;;;;13.49;71.06;93786.03;4991579;28;20186;-76
2021/12/29 09:43:38;;;;;;;31.97;23.87;;;;;;;13.65;71.13;93813.31;4990462;28;20185;-78
2021/12/29 09:46:06;;;;;;;36.73;24.87;;;;;;;13.74;71.16;93835.38;4991114;28;20228;-79
2021/12/29 09:48:35;;;;;;;35.47;25.47;;;;;;;13.74;71.21;93833.59;4956523;28;20228;-79
2021/12/29 09:51:11;;;;;;;36.60;24.87;;;;;;;13.62;71.45;93805.97;4989263;28;20237;-77
2021/12/29 09:53:38;;;;;;;35.77;25.17;;;;;;;13.75;71.41;93824.13;4989850;28;20251;-76
2021/12/29 09:56:06;;;;;;;36.60;25.50;;;;;;;13.77;71.50;93819.56;4989583;28;20237;-76
2021/12/29 09:58:34;;;;;;;39.93;27.57;;;;;;;13.71;71.56;93810.03;4989754;28;20197;-79
2021/12/29 10:01:05;;;;;;;40.93;27.47;;;;;;;13.75;72.11;93822.34;4989291;28;20197;-74
2021/12/29 10:03:32;;;;;;;38.60;26.47;;;;;;;13.70;71.94;93806.66;5006932;28;20192;-75
2021/12/29 10:06:01;;;;;;;37.30;27.63;;;;;;;13.78;71.97;93814.28;5009589;28;20227;-76
2021/12/29 10:08:30;;;;;;;38.73;25.27;;;;;;;13.80;72.25;93808.94;5009557;28;20192;-77
2021/12/29 10:11:00;;;;;;;38.07;26.37;;;;;;;13.80;72.41;93807.19;4994648;28;20197;-76
2021/12/29 10:13:29;;;;;;;42.60;28.23;;;;;;;13.63;72.56;93779.28;4992101;28;20196;-76
2021/12/29 10:16:02;;;;;;;46.47;30.63;;;;;;;13.81;72.43;93806.19;4991280;28;20808;-78
2021/12/29 10:18:31;;;;;;;47.83;30.77;;;;;;;13.63;72.56;93776.72;4991799;28;20185;-75
2021/12/29 10:21:00;;;;;;;55.97;35.47;;;;;;;13.81;72.71;93800.25;4991324;28;20193;-75
2021/12/29 10:23:29;;;;;;;52.73;34.20;;;;;;;13.78;72.78;93793.72;4991458;28;20188;-74
2021/12/29 10:26:04;;;;;;;59.27;36.97;;;;;;;13.60;72.64;93764.22;4991402;28;20232;-73
2021/12/29 10:28:33;;;;;;;54.97;39.20;;;;;;;13.77;72.92;93799.84;4991382;28;20200;-74
2021/12/29 10:31:05;;;;;;;57.83;41.00;;;;;;;13.77;72.78;93793.88;4991169;28;20219;-74
2021/12/29 10:33:37;;;;;;;61.87;40.90;;;;;;;13.77;72.69;93794.72;4991384;28;20196;-74
2021/12/29 10:36:29;;;;;;;60.83;41.53;;;;;;;13.78;73.05;93786.00;4989409;28;20204;-74
2021/12/29 10:38:59;;;;;;;64.20;43.60;;;;;;;13.77;72.88;93784.44;4950079;29;20194;-74
2021/12/29 10:41:27;;;;;;;62.10;44.23;;;;;;;13.76;72.99;93780.25;4950278;29;20198;-74
2021/12/29 10:43:58;;;;;;;64.93;44.13;;;;;;;13.78;73.02;93780.09;4950264;29;20194;-74
2021/12/29 10:46:31;;;;;;;66.40;44.57;;;;;;;13.79;73.02;93782.47;4949761;29;20230;-73
2021/12/29 10:49:00;;;;;;;72.10;48.70;;;;;;;13.79;73.15;93779.09;4949828;29;20248;-73
2021/12/29 10:51:30;;;;;;;82.90;53.13;;;;;;;13.58;73.30;93753.34;4949525;29;20225;-73
2021/12/29 10:54:10;;;;;;;82.10;54.10;;;;;;;13.77;73.21;93776.72;4949903;29;20677;-73
2021/12/29 10:56:38;;;;;;;78.87;51.53;;;;;;;13.76;73.13;93776.88;4949528;29;20241;-74
2021/12/29 10:59:21;;;;;;;85.30;54.33;;;;;;;13.75;73.33;93775.28;4949867;29;20265;-75
2021/12/29 11:01:50;;;;;;;87.73;58.13;;;;;;;13.72;73.44;93765.38;4947593;29;20195;-74
2021/12/29 11:04:18;;;;;;;86.53;56.80;;;;;;;13.70;73.34;93762.97;4949844;29;20210;-74
2021/12/29 11:06:47;;;;;;;90.47;57.77;;;;;;;13.71;73.46;93764.56;4949645;29;20194;-73
2021/12/29 11:09:16;;;;;;;83.80;54.93;;;;;;;13.63;73.55;93751.03;4949678;29;20198;-74
2021/12/29 11:11:45;;;;;;;85.30;53.83;;;;;;;13.69;73.54;93766.53;4949333;29;20187;-74
2021/12/29 11:14:14;;;;;;;81.80;51.50;;;;;;;13.68;73.40;93761.56;4948958;28;20675;-75
2021/12/29 11:16:42;;;;;;;82.07;51.73;;;;;;;13.61;73.66;93751.22;4989687;28;20689;-75
2021/12/29 11:19:11;;;;;;;82.13;53.77;;;;;;;13.55;73.72;93734.72;4990424;28;20255;-75
2021/12/29 11:21:42;;;;;;;83.77;51.93;;;;;;;13.68;73.51;93748.72;4990312;28;20188;-75
2021/12/29 11:24:17;;;;;;;78.90;50.17;;;;;;;13.67;73.65;93745.34;4990661;28;20192;-74
2021/12/29 11:26:45;;;;;;;76.30;48.70;;;;;;;13.54;73.46;93733.13;4989444;28;20319;-73
2021/12/29 11:29:14;;;;;;;73.43;47.27;;;;;;;13.66;73.37;93743.75;4990219;28;20197;-74